Time;durP1;ratioP1;P1;durP2;ratioP2;P2;SDS_P1;SDS_P2;PMS_P1;PMS_P2;Temp;Humidity;BMP_temperature;BMP_pressure;BME280_temperature;BME280_humidity;BME280_pressure;Samples;Min_cycle;Max_cycle;Signal;HPM_P1;HPM_P2
2022/06/10 00:00:48;;;;;;;11.13;6.90;;;15.50;99.90;;;;;;4916937;29;20530;-66
2022/06/10 00:03:15;;;;;;;7.87;7.03;;;15.60;99.90;;;;;;4920447;29;20432;-66
2022/06/10 00:05:42;;;;;;;7.10;6.40;;;15.50;99.90;;;;;;4918864;29;20991;-66
2022/06/10 00:08:11;;;;;;;6.40;5.50;;;15.40;99.90;;;;;;4920174;29;20463;-65
2022/06/10 00:10:37;;;;;;;7.23;5.60;;;15.50;99.90;;;;;;4920100;29;20495;-66
2022/06/10 00:13:04;;;;;;;7.70;6.47;;;15.40;99.90;;;;;;4920157;29;20511;-66
2022/06/10 00:15:31;;;;;;;9.73;6.97;;;15.40;99.90;;;;;;4920113;29;20431;-66
2022/06/10 00:17:57;;;;;;;7.17;6.03;;;15.40;99.90;;;;;;4920153;29;20459;-65
2022/06/10 00:20:26;;;;;;;10.27;6.83;;;15.30;99.90;;;;;;4920151;29;20955;-66
2022/06/10 00:22:52;;;;;;;13.43;7.40;;;15.30;99.90;;;;;;4919887;29;20436;-65
2022/06/10 00:25:17;;;;;;;12.40;7.20;;;15.30;99.90;;;;;;4919940;29;20480;-66
2022/06/10 00:27:44;;;;;;;13.50;7.40;;;15.30;99.90;;;;;;4919696;29;20439;-66
2022/06/10 00:30:10;;;;;;;7.97;6.93;;;15.40;99.90;;;;;;4919770;29;20222;-66
2022/06/10 00:32:37;;;;;;;8.60;6.83;;;15.40;99.90;;;;;;4919565;29;20455;-65
2022/06/10 00:35:03;;;;;;;16.43;7.27;;;15.40;99.90;;;;;;4918747;29;21023;-65
2022/06/10 00:37:29;;;;;;;9.23;7.70;;;15.40;99.90;;;;;;4919618;29;20427;-65
2022/06/10 00:39:55;;;;;;;8.00;7.17;;;15.40;99.90;;;;;;4919667;29;20547;-65
2022/06/10 00:42:20;;;;;;;7.30;6.60;;;15.30;99.90;;;;;;4919621;29;20919;-65
2022/06/10 00:44:49;;;;;;;13.73;7.13;;;15.40;99.90;;;;;;4919540;29;20226;-65
2022/06/10 00:47:32;;;;;;;8.57;6.60;;;15.40;99.90;;;;;;4919687;29;20234;-65
2022/06/10 00:50:28;;;;;;;8.40;6.87;;;15.40;99.90;;;;;;4919487;29;20440;-65
2022/06/10 00:53:04;;;;;;;10.20;7.10;;;15.40;99.90;;;;;;4919407;29;20529;-65
2022/06/10 00:55:30;;;;;;;12.10;9.90;;;15.40;99.90;;;;;;4919428;29;20432;-65
2022/06/10 00:58:23;;;;;;;8.73;6.80;;;15.30;99.90;;;;;;4919367;29;20420;-65
2022/06/10 01:00:49;;;;;;;8.50;6.70;;;15.20;99.90;;;;;;4915032;29;20619;-65
2022/06/10 01:03:14;;;;;;;15.57;7.80;;;15.20;99.90;;;;;;4919300;29;20471;-65
2022/06/10 01:05:40;;;;;;;8.90;7.23;;;15.20;99.90;;;;;;4919074;29;20514;-65
2022/06/10 01:08:12;;;;;;;14.70;7.03;;;15.20;99.90;;;;;;4919200;29;20183;-65
2022/06/10 01:10:47;;;;;;;12.90;7.43;;;15.20;99.90;;;;;;4919090;29;20183;-65
2022/06/10 01:13:24;;;;;;;10.57;6.57;;;15.20;99.90;;;;;;4918527;29;20431;-65
2022/06/10 01:16:27;;;;;;;10.90;6.90;;;15.10;99.90;;;;;;4919083;29;20416;-65
2022/06/10 01:19:12;;;;;;;12.00;7.10;;;15.10;99.90;;;;;;4917945;29;20467;-65
2022/06/10 01:22:14;;;;;;;12.80;7.00;;;15.20;99.90;;;;;;4917665;29;20420;-65
2022/06/10 01:24:40;;;;;;;8.10;6.80;;;15.10;99.90;;;;;;4918802;29;20463;-65
2022/06/10 04:31:11;;;;;;;15.43;8.27;;;14.60;99.90;;;;;;5566501;23;20582;-65
2022/06/10 04:33:37;;;;;;;12.80;8.23;;;14.80;99.90;;;;;;4915257;29;20990;-65
2022/06/10 04:36:03;;;;;;;15.50;9.87;;;14.90;99.90;;;;;;4915202;29;20176;-63
2022/06/10 04:38:29;;;;;;;11.63;9.27;;;14.90;99.90;;;;;;4915255;29;20671;-65
2022/06/10 04:40:54;;;;;;;12.03;8.70;;;14.90;99.90;;;;;;4915179;29;20436;-65
2022/06/10 04:43:20;;;;;;;9.47;7.87;;;15.00;99.90;;;;;;4915095;29;20313;-66
2022/06/10 04:45:50;;;;;;;12.87;8.97;;;15.00;99.90;;;;;;4915061;29;20234;-65
2022/06/10 04:48:16;;;;;;;10.63;8.60;;;15.10;99.90;;;;;;4916052;29;20172;-66
2022/06/10 04:50:43;;;;;;;11.63;8.90;;;15.10;99.90;;;;;;4918561;29;20443;-67
2022/06/10 04:53:10;;;;;;;11.07;8.70;;;15.20;99.90;;;;;;4922626;29;20459;-71
2022/06/10 04:55:36;;;;;;;11.27;7.40;;;15.20;99.90;;;;;;4937414;29;20434;-70
2022/06/10 04:58:03;;;;;;;10.10;7.73;;;15.30;99.90;;;;;;4937341;29;20538;-70
2022/06/10 05:00:33;;;;;;;12.10;7.77;;;15.40;99.90;;;;;;4937341;29;20557;-70
2022/06/10 05:02:59;;;;;;;9.80;8.13;;;15.40;99.90;;;;;;4937190;29;20462;-70
2022/06/10 05:05:26;;;;;;;9.90;7.33;;;15.50;99.90;;;;;;4937182;29;20478;-69
2022/06/10 05:07:51;;;;;;;15.33;9.30;;;15.60;99.90;;;;;;4937271;29;20435;-69
2022/06/10 05:10:18;;;;;;;7.50;6.70;;;15.70;99.90;;;;;;4937243;29;20510;-70
2022/06/10 05:12:47;;;;;;;7.97;7.20;;;15.70;99.90;;;;;;4935958;29;20233;-68
2022/06/10 05:15:14;;;;;;;14.10;8.30;;;15.80;99.90;;;;;;4937015;29;20442;-69
2022/06/10 05:17:41;;;;;;;12.33;7.43;;;15.80;99.90;;;;;;4936683;29;20439;-69
2022/06/10 05:20:08;;;;;;;11.03;7.10;;;15.90;99.90;;;;;;4936715;29;20431;-71
2022/06/10 05:22:33;;;;;;;8.77;6.20;;;16.00;99.90;;;;;;4936817;29;20434;-71
2022/06/10 05:24:59;;;;;;;14.17;8.80;;;16.00;99.90;;;;;;4936900;29;20806;-70
2022/06/10 05:27:24;;;;;;;9.83;5.93;;;16.10;99.90;;;;;;4936985;29;20167;-70
2022/06/10 05:29:50;;;;;;;12.93;7.50;;;16.20;99.90;;;;;;4936801;29;20179;-71
2022/06/10 05:32:16;;;;;;;8.33;5.90;;;16.30;99.90;;;;;;4936649;29;20733;-71
2022/06/10 05:34:44;;;;;;;8.77;6.20;;;16.30;99.90;;;;;;4936589;29;20605;-71
2022/06/10 05:37:17;;;;;;;10.20;5.83;;;16.40;99.90;;;;;;4936838;29;20230;-71
2022/06/10 05:39:44;;;;;;;4.93;4.40;;;16.50;99.90;;;;;;4936647;29;20438;-67
2022/06/10 05:42:10;;;;;;;10.03;6.00;;;16.60;99.90;;;;;;4936654;29;20470;-68
2022/06/10 05:44:42;;;;;;;12.90;5.80;;;16.70;99.90;;;;;;4935868;29;20471;-70
2022/06/10 05:47:11;;;;;;;11.90;5.50;;;16.80;99.90;;;;;;4936301;29;20795;-69
2022/06/10 05:49:39;;;;;;;8.77;4.97;;;16.90;99.90;;;;;;4935947;29;20419;-69
2022/06/10 05:52:06;;;;;;;10.03;5.20;;;16.90;99.90;;;;;;4935614;29;20442;-71
2022/06/10 05:54:33;;;;;;;9.13;5.20;;;17.00;99.90;;;;;;4935610;29;20423;-72
2022/06/10 05:56:59;;;;;;;8.20;4.60;;;17.10;99.90;;;;;;4936361;29;20421;-72
2022/06/10 05:59:29;;;;;;;5.43;4.10;;;17.20;99.90;;;;;;4936248;29;20426;-72
2022/06/10 06:01:55;;;;;;;8.30;4.43;;;17.30;99.90;;;;;;4936268;29;20234;-71
2022/06/10 06:04:20;;;;;;;7.83;4.10;;;17.50;99.90;;;;;;4935855;29;20463;-72
2022/06/10 06:06:46;;;;;;;9.90;4.23;;;17.60;99.90;;;;;;4934832;29;20442;-72
2022/06/10 06:09:14;;;;;;;9.50;4.30;;;17.60;99.90;;;;;;4936067;29;20191;-73
2022/06/10 06:11:40;;;;;;;10.10;4.03;;;17.60;99.90;;;;;;4935712;29;20171;-71
2022/06/10 06:14:06;;;;;;;6.20;3.70;;;17.70;99.90;;;;;;4936050;29;20563;-70
2022/06/10 06:16:32;;;;;;;7.03;3.70;;;17.80;99.90;;;;;;4936192;29;20522;-70
2022/06/10 06:18:58;;;;;;;10.33;3.90;;;17.90;99.90;;;;;;4935876;29;20179;-69
2022/06/10 06:21:23;;;;;;;9.70;3.83;;;18.00;99.90;;;;;;4936334;29;20442;-71
2022/06/10 06:23:49;;;;;;;10.30;4.17;;;18.00;99.90;;;;;;4936040;29;20270;-73
2022/06/10 06:26:15;;;;;;;4.90;3.73;;;18.00;99.90;;;;;;4936503;29;20214;-75
2022/06/10 06:28:42;;;;;;;4.50;3.43;;;18.10;99.90;;;;;;4936255;29;20596;-73
2022/06/10 06:31:08;;;;;;;9.37;4.10;;;18.20;99.90;;;;;;4935069;29;20981;-77
2022/06/10 06:33:34;;;;;;;6.77;4.03;;;18.20;99.90;;;;;;4937577;29;20419;-74
2022/06/10 06:35:59;;;;;;;9.63;3.93;;;18.20;99.90;;;;;;4935938;29;20431;-72
2022/06/10 06:38:26;;;;;;;6.70;3.90;;;18.20;99.90;;;;;;4935724;29;20370;-72
2022/06/10 06:40:52;;;;;;;10.73;4.00;;;18.20;99.90;;;;;;4935561;29;20535;-72
2022/06/10 06:43:18;;;;;;;7.80;4.13;;;18.20;99.90;;;;;;4935730;29;20419;-73
2022/06/10 06:45:43;;;;;;;6.67;3.73;;;18.20;99.90;;;;;;4936220;29;20211;-86
2022/06/10 06:48:11;;;;;;;9.20;4.00;;;18.20;99.90;;;;;;4936238;29;20186;-72
2022/06/10 06:50:45;;;;;;;8.60;3.70;;;18.20;99.90;;;;;;4935432;29;20186;-72
2022/06/10 06:53:10;;;;;;;7.40;4.90;;;18.20;99.90;;;;;;4935469;29;20430;-71
2022/06/10 06:55:38;;;;;;;9.20;4.43;;;18.30;99.90;;;;;;4934998;29;20435;-71
2022/06/10 06:58:05;;;;;;;5.70;4.13;;;18.20;99.90;;;;;;4935370;29;20261;-72
2022/06/10 07:00:31;;;;;;;10.67;3.20;;;18.20;99.90;;;;;;4935385;29;20458;-72
2022/06/10 07:02:56;;;;;;;15.15;5.20;;;18.20;99.90;;;;;;4934878;29;20558;-71
2022/06/10 07:05:22;;;;;;;12.27;4.00;;;18.20;99.90;;;;;;4935235;29;20211;-73
2022/06/10 07:07:48;;;;;;;11.93;5.20;;;18.40;99.90;;;;;;4935109;29;20210;-72
2022/06/10 07:10:16;;;;;;;13.37;5.90;;;18.50;99.90;;;;;;4934863;29;20172;-72
2022/06/10 07:12:42;;;;;;;8.53;4.40;;;18.50;99.90;;;;;;4934750;29;20949;-73
2022/06/10 07:15:09;;;;;;;6.70;3.10;;;18.60;99.90;;;;;;4934914;29;20427;-73
2022/06/10 07:17:35;;;;;;;11.70;3.27;;;18.70;99.90;;;;;;4934545;29;20431;-73
2022/06/10 07:20:02;;;;;;;8.73;3.27;;;18.70;99.90;;;;;;4934933;29;20518;-73
2022/06/10 07:22:28;;;;;;;13.10;3.50;;;18.70;99.90;;;;;;4934622;29;20514;-78
2022/06/10 07:24:54;;;;;;;9.13;3.90;;;18.80;99.90;;;;;;4933318;29;20569;-78
2022/06/10 07:27:20;;;;;;;4.70;2.97;;;18.80;99.90;;;;;;4934123;29;20538;-79
2022/06/10 07:29:46;;;;;;;6.90;3.87;;;18.80;99.90;;;;;;4934780;29;20190;-78
2022/06/10 07:32:11;;;;;;;10.13;5.03;;;18.80;99.90;;;;;;4934267;29;20459;-78
2022/06/10 07:34:37;;;;;;;9.77;3.20;;;18.80;99.90;;;;;;4934917;29;20185;-77
2022/06/10 07:37:03;;;;;;;10.77;4.30;;;18.90;99.90;;;;;;4934798;29;20218;-79
2022/06/10 07:39:29;;;;;;;7.03;3.90;;;18.90;99.90;;;;;;4935213;29;20182;-80
2022/06/10 07:41:57;;;;;;;8.17;2.80;;;18.90;99.90;;;;;;4934953;29;20818;-82
2022/06/10 07:44:31;;;;;;;6.40;2.87;;;19.00;99.90;;;;;;4935323;29;20297;-81
2022/06/10 07:46:58;;;;;;;8.07;2.70;;;19.00;99.90;;;;;;4934184;29;20482;-80
2022/06/10 07:49:25;;;;;;;9.73;3.43;;;19.10;99.90;;;;;;4931717;29;20942;-78
2022/06/10 07:51:50;;;;;;;7.37;2.83;;;19.10;99.90;;;;;;4934693;29;20514;-77
2022/06/10 07:54:16;;;;;;;7.93;2.80;;;19.00;99.90;;;;;;4931222;29;20526;-79
2022/06/10 07:56:42;;;;;;;10.03;3.07;;;19.10;99.90;;;;;;4923003;29;20203;-81
2022/06/10 07:59:08;;;;;;;5.87;2.63;;;19.10;99.90;;;;;;4928605;29;20210;-81
2022/06/10 08:01:34;;;;;;;4.30;2.47;;;19.10;99.90;;;;;;4933672;29;20517;-80
2022/06/10 08:04:01;;;;;;;8.10;3.33;;;19.10;99.90;;;;;;4933064;29;20431;-81
2022/06/10 08:06:29;;;;;;;5.50;2.60;;;19.10;99.90;;;;;;4933710;29;20798;-80
2022/06/10 08:08:55;;;;;;;4.60;2.33;;;19.10;99.90;;;;;;4934191;29;20423;-73
2022/06/10 08:11:21;;;;;;;6.20;2.60;;;19.00;99.90;;;;;;4934512;29;20435;-74
2022/06/10 08:13:47;;;;;;;5.10;2.50;;;19.00;99.90;;;;;;4934315;29;20786;-74
2022/06/10 08:16:13;;;;;;;7.77;2.40;;;18.90;99.90;;;;;;4934428;29;20431;-74
2022/06/10 08:18:39;;;;;;;4.30;2.87;;;18.90;99.90;;;;;;4934026;29;20960;-74
2022/06/10 08:23:50;;;;;;;9.43;2.57;;;19.00;99.90;;;;;;4937324;29;20578;-76
2022/06/10 08:26:16;;;;;;;9.77;2.80;;;19.10;99.90;;;;;;4938844;29;20557;-74
2022/06/10 08:28:44;;;;;;;5.90;2.47;;;19.20;99.90;;;;;;4937425;29;20634;-74
2022/06/10 08:31:10;;;;;;;8.73;3.20;;;19.20;99.90;;;;;;4938795;29;20969;-74
2022/06/10 08:33:36;;;;;;;3.20;2.40;;;19.10;99.90;;;;;;4938780;29;20526;-74
2022/06/10 08:36:04;;;;;;;6.70;2.20;;;19.10;99.90;;;;;;4938648;29;20422;-74
2022/06/10 08:38:30;;;;;;;4.30;2.57;;;19.20;99.90;;;;;;4938665;29;20430;-74
2022/06/10 08:41:00;;;;;;;4.10;2.53;;;19.20;99.90;;;;;;4938232;29;21004;-73
2022/06/10 08:43:50;;;;;;;3.57;1.93;;;19.30;99.90;;;;;;4938674;29;20525;-73
2022/06/10 08:46:39;;;;;;;6.80;1.97;;;19.30;99.90;;;;;;4938594;29;20997;-73
2022/06/10 08:49:35;;;;;;;7.90;2.10;;;19.40;99.90;;;;;;4938663;29;20430;-74
2022/06/10 08:52:27;;;;;;;6.63;1.60;;;19.40;99.90;;;;;;4937690;29;20426;-74
2022/06/10 08:55:05;;;;;;;4.83;1.93;;;19.40;99.90;;;;;;4936981;29;20915;-74
2022/06/10 08:57:37;;;;;;;9.10;2.30;;;19.50;99.90;;;;;;4938243;29;20513;-74
2022/06/10 09:00:29;;;;;;;7.63;2.70;;;19.60;99.90;;;;;;4938502;29;20510;-77
2022/06/10 09:03:12;;;;;;;4.87;1.97;;;19.60;99.90;;;;;;4935606;29;20439;-77
2022/06/10 09:05:46;;;;;;;5.93;2.50;;;19.70;99.90;;;;;;4938338;29;20478;-78
2022/06/10 09:08:18;;;;;;;4.67;2.10;;;19.80;99.90;;;;;;4938581;29;20415;-77
2022/06/10 09:10:50;;;;;;;4.10;1.87;;;19.90;99.90;;;;;;4938295;29;20423;-75
2022/06/10 09:13:40;;;;;;;3.00;1.63;;;20.00;99.90;;;;;;4938408;29;20817;-76
2022/06/10 09:16:19;;;;;;;7.43;2.00;;;20.00;99.90;;;;;;4938418;29;20419;-77
2022/06/10 09:19:03;;;;;;;3.70;2.10;;;20.10;99.90;;;;;;4938446;29;20448;-77
2022/06/10 09:21:46;;;;;;;2.80;1.93;;;20.20;99.90;;;;;;4938429;29;20431;-78
2022/06/10 09:24:52;;;;;;;9.60;1.70;;;20.40;99.90;;;;;;4938153;29;20429;-77
2022/06/10 09:27:33;;;;;;;4.37;2.07;;;20.50;99.90;;;;;;4937729;29;20851;-78
2022/06/10 09:30:03;;;;;;;5.30;2.17;;;20.60;99.90;;;;;;4938026;29;20966;-78
2022/06/10 09:32:47;;;;;;;4.00;1.53;;;20.70;99.90;;;;;;4937759;29;20481;-78
2022/06/10 09:35:21;;;;;;;10.97;2.10;;;20.80;99.90;;;;;;4937585;29;20781;-79
2022/06/10 09:38:01;;;;;;;9.87;2.40;;;20.80;99.90;;;;;;4937969;29;20453;-78
2022/06/10 09:40:38;;;;;;;11.37;2.23;;;20.90;99.90;;;;;;4937996;29;20510;-79
2022/06/10 09:43:09;;;;;;;10.40;2.70;;;20.90;99.90;;;;;;4937817;29;20435;-77
2022/06/10 09:45:40;;;;;;;4.30;2.40;;;21.00;99.90;;;;;;4937715;29;20847;-76
2022/06/10 09:48:16;;;;;;;6.80;2.20;;;21.00;99.90;;;;;;4936717;29;20490;-76
2022/06/10 09:51:12;;;;;;;10.90;2.27;;;21.10;99.90;;;;;;4938027;29;20825;-77
2022/06/10 09:53:53;;;;;;;4.87;1.87;;;21.00;99.90;;;;;;4935832;29;20844;-83
2022/06/10 09:56:41;;;;;;;4.23;1.60;;;21.00;99.90;;;;;;4937902;29;20432;-77
2022/06/10 09:59:30;;;;;;;10.27;2.60;;;21.00;99.90;;;;;;4937611;29;20506;-76
2022/06/10 10:02:25;;;;;;;6.70;2.10;;;21.10;99.90;;;;;;4937668;29;20907;-76
2022/06/10 10:05:09;;;;;;;4.97;2.07;;;21.10;99.90;;;;;;4936537;29;20469;-76
2022/06/10 10:07:51;;;;;;;6.33;2.73;;;21.10;99.90;;;;;;4937564;29;20437;-76
2022/06/10 10:10:26;;;;;;;5.60;2.20;;;21.20;99.90;;;;;;4937516;29;20514;-76
2022/06/10 10:12:54;;;;;;;3.27;2.10;;;21.20;99.90;;;;;;4937197;29;20418;-76
2022/06/10 10:15:40;;;;;;;4.10;2.00;;;21.20;99.90;;;;;;4937314;29;20455;-76
2022/06/10 10:18:51;;;;;;;7.33;2.00;;;21.30;99.90;;;;;;4937214;29;20427;-77
2022/06/10 10:21:39;;;;;;;4.17;2.33;;;21.30;99.90;;;;;;4929095;29;20888;-79
2022/06/10 10:24:13;;;;;;;6.97;2.40;;;21.20;99.90;;;;;;4936943;29;20434;-77
2022/06/10 10:26:42;;;;;;;5.87;1.90;;;21.10;99.90;;;;;;4937025;29;20526;-75
2022/06/10 10:29:18;;;;;;;4.70;2.23;;;21.00;99.90;;;;;;4936629;29;20438;-75
2022/06/10 10:31:55;;;;;;;6.40;2.20;;;21.00;99.90;;;;;;4936701;29;21013;-75
2022/06/10 10:34:24;;;;;;;7.70;2.20;;;20.90;99.90;;;;;;4936817;29;20431;-75
2022/06/10 10:36:53;;;;;;;7.80;2.33;;;20.80;99.90;;;;;;4936749;29;20604;-75
2022/06/10 10:39:34;;;;;;;8.07;2.53;;;20.70;99.90;;;;;;4936867;29;20441;-75
2022/06/10 10:42:03;;;;;;;8.93;2.20;;;20.60;99.90;;;;;;4936730;29;20435;-76
2022/06/10 10:44:32;;;;;;;7.87;2.60;;;20.70;99.90;;;;;;4936587;29;20891;-75
2022/06/10 10:46:58;;;;;;;5.00;3.20;;;20.60;99.90;;;;;;4935736;29;20850;-75
2022/06/10 10:49:30;;;;;;;8.63;2.60;;;20.50;99.90;;;;;;4936529;29;20955;-75
2022/06/10 10:51:56;;;;;;;7.93;3.10;;;20.50;99.90;;;;;;4936456;29;20447;-75
2022/06/10 10:54:33;;;;;;;8.87;4.77;;;20.60;99.90;;;;;;4936623;29;20535;-75
2022/06/10 10:57:00;;;;;;;8.13;2.87;;;20.60;99.90;;;;;;4936466;29;20515;-75
2022/06/10 10:59:39;;;;;;;11.37;4.27;;;20.80;99.90;;;;;;4936534;29;20423;-76
2022/06/10 11:02:26;;;;;;;7.30;2.73;;;20.80;99.90;;;;;;4936546;29;20515;-75
2022/06/10 11:05:06;;;;;;;6.57;2.73;;;20.70;99.90;;;;;;4936224;29;20470;-75
2022/06/10 11:07:32;;;;;;;10.70;3.30;;;20.80;99.90;;;;;;4936308;29;20494;-75
2022/06/10 11:10:19;;;;;;;6.90;2.50;;;20.90;99.90;;;;;;4936154;29;20435;-75
2022/06/10 11:12:45;;;;;;;11.07;3.23;;;21.00;99.90;;;;;;4936242;29;20193;-75
2022/06/10 11:15:27;;;;;;;4.77;2.73;;;20.90;99.90;;;;;;4936266;29;20414;-75
2022/06/10 11:17:54;;;;;;;5.77;2.60;;;21.00;99.90;;;;;;4936140;29;20431;-76
2022/06/10 11:20:34;;;;;;;4.30;2.37;;;21.10;99.90;;;;;;4935953;29;20427;-75
2022/06/10 11:23:24;;;;;;;6.60;3.10;;;21.00;99.90;;;;;;4936141;29;20427;-71
2022/06/10 11:26:12;;;;;;;7.40;2.53;;;21.10;99.90;;;;;;4935960;29;21009;-71
2022/06/10 11:28:40;;;;;;;6.10;2.37;;;21.20;99.90;;;;;;4935959;29;20803;-71
2022/06/10 11:31:40;;;;;;;4.83;2.80;;;21.20;99.90;;;;;;4935779;29;20825;-72
2022/06/10 11:34:17;;;;;;;6.60;3.50;;;21.30;99.90;;;;;;4932953;29;20529;-73
2022/06/10 11:36:49;;;;;;;11.23;4.00;;;21.40;99.90;;;;;;4935867;29;20425;-73
2022/06/10 11:39:20;;;;;;;10.97;4.03;;;21.50;99.90;;;;;;4935851;29;20535;-72
2022/06/10 11:42:01;;;;;;;10.67;4.97;;;21.50;99.90;;;;;;4935507;29;20435;-75
2022/06/10 11:44:29;;;;;;;8.47;4.80;;;21.60;99.90;;;;;;4935737;29;20490;-75
2022/06/10 11:47:00;;;;;;;5.93;3.30;;;21.50;99.90;;;;;;4935825;29;20579;-73
2022/06/10 11:49:40;;;;;;;4.77;3.23;;;21.70;99.90;;;;;;4935901;29;20562;-74
2022/06/10 11:52:32;;;;;;;3.90;3.27;;;21.80;99.90;;;;;;4935992;29;20430;-74
2022/06/10 11:55:19;;;;;;;11.00;4.67;;;21.80;99.90;;;;;;4935718;29;20423;-74
2022/06/10 12:00:52;;;;;;;12.40;3.53;;;22.10;99.90;;;;;;4939880;29;21032;-74
2022/06/10 12:03:33;;;;;;;4.73;3.80;;;22.20;99.90;;;;;;4939818;29;20422;-74
2022/06/10 12:06:17;;;;;;;5.40;2.67;;;22.30;99.90;;;;;;4939234;29;20514;-73
2022/06/10 12:08:50;;;;;;;7.03;3.00;;;22.30;99.90;;;;;;4939412;29;20780;-74
2022/06/10 12:11:40;;;;;;;8.37;3.03;;;22.30;99.90;;;;;;4939592;29;20793;-74
2022/06/10 12:14:27;;;;;;;7.47;3.10;;;22.30;99.90;;;;;;4939382;29;20431;-76
2022/06/10 12:17:01;;;;;;;9.27;3.60;;;22.20;99.90;;;;;;4938057;29;20474;-75
2022/06/10 12:19:46;;;;;;;5.57;2.93;;;22.20;99.90;;;;;;4939435;29;20923;-73
2022/06/10 12:22:13;;;;;;;7.07;3.00;;;22.30;99.90;;;;;;4936279;29;20445;-73
2022/06/10 12:24:39;;;;;;;8.73;2.87;;;22.20;99.90;;;;;;4939006;29;20462;-74
2022/06/10 12:27:11;;;;;;;12.00;3.40;;;22.30;99.90;;;;;;4939042;29;20494;-74
2022/06/10 12:29:51;;;;;;;10.50;3.20;;;22.30;99.90;;;;;;4939123;29;20450;-75
2022/06/10 12:32:56;;;;;;;5.43;2.87;;;22.40;99.90;;;;;;4938861;29;20477;-74
2022/06/10 12:35:28;;;;;;;5.40;2.43;;;22.40;99.90;;;;;;4938574;29;20434;-75
2022/06/10 12:38:11;;;;;;;5.60;2.90;;;22.50;99.90;;;;;;4938966;29;20799;-77
2022/06/10 12:40:59;;;;;;;9.33;3.00;;;22.60;99.90;;;;;;4938820;29;20427;-76
2022/06/10 12:43:33;;;;;;;3.07;2.20;;;22.70;99.90;;;;;;4938854;29;20427;-75
2022/06/10 12:46:01;;;;;;;4.37;2.90;;;22.80;99.90;;;;;;4938736;29;20479;-76
2022/06/10 12:48:41;;;;;;;8.13;2.27;;;22.80;99.90;;;;;;4937495;29;20434;-78
2022/06/10 12:51:13;;;;;;;6.00;2.30;;;22.90;99.90;;;;;;4938600;29;20806;-77
2022/06/10 12:54:08;;;;;;;3.63;2.00;;;22.90;99.90;;;;;;4938624;29;20927;-76
2022/06/10 12:56:37;;;;;;;5.80;2.73;;;22.90;99.90;;;;;;4937333;29;20450;-75
2022/06/10 12:59:06;;;;;;;7.77;2.30;;;22.80;99.90;;;;;;4938482;29;20434;-76
2022/06/10 13:01:32;;;;;;;6.40;2.40;;;22.70;99.90;;;;;;4938569;29;20443;-76
2022/06/10 13:04:41;;;;;;;5.23;2.50;;;22.80;99.90;;;;;;4938216;29;20419;-77
2022/06/10 13:07:26;;;;;;;8.47;2.20;;;23.10;99.90;;;;;;4937566;29;20191;-76
2022/06/10 13:09:52;;;;;;;8.57;2.20;;;23.20;99.90;;;;;;4937062;29;20514;-77
2022/06/10 13:12:37;;;;;;;9.53;2.70;;;23.40;99.90;;;;;;4938149;29;20514;-76
2022/06/10 13:15:25;;;;;;;5.03;2.20;;;23.30;99.90;;;;;;4938287;29;20175;-76
2022/06/10 13:18:03;;;;;;;11.30;2.23;;;23.30;99.90;;;;;;4938050;29;20422;-76
2022/06/10 13:20:29;;;;;;;9.63;2.70;;;23.40;99.90;;;;;;4937920;29;20415;-76
2022/06/10 13:23:21;;;;;;;8.30;2.83;;;23.30;99.90;;;;;;4937915;29;20454;-77
2022/06/10 13:25:50;;;;;;;6.50;2.07;;;23.20;99.90;;;;;;4937899;29;20475;-76
2022/06/10 13:28:28;;;;;;;6.80;2.70;;;23.20;99.90;;;;;;4937989;29;20779;-76
2022/06/10 13:31:10;;;;;;;4.95;2.10;;;23.10;99.90;;;;;;4936644;29;20533;-76
2022/06/10 13:33:36;;;;;;;3.73;1.70;;;23.10;99.90;;;;;;4937942;29;20210;-76
2022/06/10 13:36:02;;;;;;;4.30;1.80;;;23.40;99.90;;;;;;4937658;29;20461;-76
2022/06/10 13:38:33;;;;;;;4.37;1.83;;;23.40;99.90;;;;;;4937533;29;20234;-76
2022/06/10 13:43:49;;;;;;;2.70;2.07;;;23.60;99.90;;;;;;4937963;29;20459;-76
2022/06/10 13:46:25;;;;;;;2.47;1.40;;;23.70;99.90;;;;;;4937618;29;20518;-76
2022/06/10 13:49:06;;;;;;;7.13;1.70;;;23.60;99.90;;;;;;4937641;29;20419;-76
2022/06/10 13:51:42;;;;;;;7.17;2.20;;;23.60;99.90;;;;;;4937653;29;20437;-76
2022/06/10 13:54:19;;;;;;;5.50;2.00;;;23.60;99.90;;;;;;4937750;29;20458;-75
2022/06/10 13:56:44;;;;;;;2.00;1.50;;;23.60;99.90;;;;;;4937483;29;20537;-76
2022/06/10 13:59:29;;;;;;;8.13;2.27;;;23.70;99.90;;;;;;4937541;29;20526;-76
2022/06/10 14:02:00;;;;;;;2.50;1.60;;;23.80;99.90;;;;;;4937303;29;20190;-76
2022/06/10 14:04:30;;;;;;;4.93;1.77;;;23.90;99.90;;;;;;4937275;29;20526;-76
2022/06/10 14:07:06;;;;;;;1.97;1.60;;;23.80;99.90;;;;;;4937198;29;20494;-75
2022/06/10 14:09:35;;;;;;;5.20;2.07;;;23.80;99.90;;;;;;4937312;29;20439;-75
2022/06/10 14:12:18;;;;;;;5.53;1.90;;;23.80;99.90;;;;;;4937196;29;20431;-74
2022/06/10 14:14:45;;;;;;;5.37;2.40;;;23.80;99.90;;;;;;4936873;29;20525;-77
2022/06/10 14:17:10;;;;;;;8.83;2.20;;;23.80;99.90;;;;;;4937151;29;20411;-76
2022/06/10 14:19:46;;;;;;;4.90;2.50;;;23.90;99.90;;;;;;4936934;29;20431;-76
2022/06/10 14:22:34;;;;;;;2.30;1.93;;;24.00;99.90;;;;;;4937068;29;20619;-76
2022/06/10 14:25:12;;;;;;;7.20;2.30;;;24.10;99.90;;;;;;4936860;29;20439;-77
2022/06/10 14:27:43;;;;;;;3.87;1.97;;;24.10;99.90;;;;;;4936920;29;20952;-76
2022/06/10 14:30:22;;;;;;;5.63;2.10;;;24.10;99.90;;;;;;4936929;29;20427;-76
2022/06/10 14:33:00;;;;;;;6.10;2.10;;;24.00;99.90;;;;;;4936795;29;20462;-76
2022/06/10 14:35:30;;;;;;;3.80;2.10;;;24.10;99.90;;;;;;4936636;29;20485;-76
2022/06/10 14:38:00;;;;;;;3.07;2.77;;;24.00;99.90;;;;;;4936715;29;20844;-76
2022/06/10 14:40:26;;;;;;;5.07;2.10;;;24.10;99.90;;;;;;4936651;29;20439;-75
2022/06/10 14:43:15;;;;;;;3.60;2.23;;;24.10;99.90;;;;;;4936490;29;20423;-76
2022/06/10 14:45:42;;;;;;;4.20;2.30;;;24.00;99.90;;;;;;4936450;29;20644;-75
2022/06/10 14:48:17;;;;;;;2.23;1.70;;;23.90;99.90;;;;;;4936694;29;20835;-76
2022/06/10 14:51:22;;;;;;;4.90;2.50;;;23.80;99.90;;;;;;4936282;29;20466;-75
2022/06/10 14:54:06;;;;;;;3.73;2.60;;;23.80;99.90;;;;;;4915273;29;20475;-75
2022/06/10 14:56:38;;;;;;;3.80;2.40;;;23.70;99.90;;;;;;4915131;29;21012;-76
2022/06/10 14:59:23;;;;;;;5.03;1.87;;;23.70;99.90;;;;;;4927571;29;20442;-77
2022/06/10 15:01:51;;;;;;;4.40;2.57;;;23.70;99.90;;;;;;4935318;29;20431;-77
2022/06/10 15:04:17;;;;;;;4.23;1.77;;;23.80;99.90;;;;;;4935525;29;20427;-77
2022/06/10 15:06:59;;;;;;;6.33;2.37;;;24.00;99.90;;;;;;4935420;29;20430;-77
2022/06/10 15:09:34;;;;;;;6.13;2.20;;;24.10;99.90;;;;;;4935647;29;20619;-77
2022/06/10 15:12:24;;;;;;;5.63;2.40;;;24.00;99.90;;;;;;4935271;29;20441;-75
2022/06/10 15:14:50;;;;;;;3.13;2.50;;;24.00;99.90;;;;;;4934917;29;20467;-75
2022/06/10 15:17:18;;;;;;;5.27;3.23;;;23.90;99.90;;;;;;4934834;29;20949;-74
2022/06/10 15:19:44;;;;;;;2.40;1.73;;;24.00;99.90;;;;;;4933448;29;20431;-74
2022/06/10 15:22:19;;;;;;;3.63;2.13;;;24.20;99.90;;;;;;4935027;29;20497;-74
2022/06/10 15:24:45;;;;;;;2.77;2.00;;;24.30;99.90;;;;;;4934876;29;20521;-76
2022/06/10 15:27:11;;;;;;;2.63;1.83;;;24.20;99.90;;;;;;4933205;29;20510;-76
2022/06/10 15:29:37;;;;;;;7.17;2.40;;;24.30;99.90;;;;;;4934825;29;20678;-75
2022/06/10 15:32:05;;;;;;;2.67;2.47;;;24.40;99.90;;;;;;4934376;29;20235;-75
2022/06/10 15:34:30;;;;;;;2.60;1.63;;;24.30;99.90;;;;;;4934838;29;20474;-76
2022/06/10 15:42:30;;;;;;;4.13;2.30;;;24.30;99.90;;;;;;4935798;29;20434;-77
2022/06/10 15:44:56;;;;;;;5.80;2.67;;;24.30;99.90;;;;;;4935452;29;20840;-77
2022/06/10 15:47:22;;;;;;;4.40;2.57;;;24.50;99.90;;;;;;4935861;29;20469;-77
2022/06/10 15:49:48;;;;;;;7.43;3.10;;;24.50;99.90;;;;;;4935770;29;20274;-77
2022/06/10 15:52:31;;;;;;;6.33;2.30;;;24.50;99.90;;;;;;4936258;29;20458;-80
2022/06/10 15:57:49;;;;;;;3.10;2.70;;;24.50;99.90;;;;;;4935619;29;20487;-77
2022/06/10 16:00:25;;;;;;;4.37;2.60;;;24.50;99.90;;;;;;4935590;29;20753;-76
2022/06/10 16:02:52;;;;;;;2.17;1.97;;;24.30;99.90;;;;;;4935610;29;20518;-77
2022/06/10 16:05:20;;;;;;;6.37;2.50;;;24.30;99.90;;;;;;4935636;29;20431;-77
2022/06/10 16:07:46;;;;;;;2.77;2.43;;;24.20;99.90;;;;;;4935620;29;20445;-78
2022/06/10 16:10:12;;;;;;;4.03;2.40;;;24.20;99.90;;;;;;4935541;29;20517;-79
2022/06/10 16:15:29;;;;;;;2.27;1.83;;;23.90;99.90;;;;;;4923277;29;20475;-79
2022/06/10 16:17:56;;;;;;;3.97;2.70;;;23.80;99.90;;;;;;4932638;29;20435;-79
2022/06/10 16:20:27;;;;;;;5.93;2.73;;;23.80;99.90;;;;;;4935438;29;20497;-78
2022/06/10 16:22:53;;;;;;;3.83;2.17;;;23.70;99.90;;;;;;4935533;29;20431;-76
2022/06/10 16:25:21;;;;;;;5.93;2.70;;;23.60;99.90;;;;;;4925962;29;20444;-76
2022/06/10 16:27:47;;;;;;;5.00;2.10;;;23.60;99.90;;;;;;4926820;29;20246;-76
2022/06/10 16:30:21;;;;;;;2.80;1.80;;;23.50;99.90;;;;;;4925514;29;20535;-76
2022/06/10 16:32:49;;;;;;;2.70;2.10;;;23.40;99.90;;;;;;4923125;29;20458;-75
2022/06/10 16:35:20;;;;;;;2.00;1.80;;;23.30;99.90;;;;;;4923393;29;20472;-76
2022/06/10 16:37:47;;;;;;;5.83;2.13;;;23.20;99.90;;;;;;4917505;29;20454;-75